sensor_id;sensor_type;location;lat;lon;timestamp;pressure;altitude;pressure_sealevel;temperature;humidity
55755;BME280;41674;52.290;-1.474;2023-06-10T00:02:28;100962.71;;;13.52;92.62
55755;BME280;41674;52.290;-1.474;2023-06-10T00:05:04;100966.64;;;13.33;92.06
55755;BME280;41674;52.290;-1.474;2023-06-10T00:07:28;100962.41;;;12.95;94.19
55755;BME280;41674;52.290;-1.474;2023-06-10T00:09:58;100969.97;;;12.41;100.00
55755;BME280;41674;52.290;-1.474;2023-06-10T00:12:27;100974.13;;;12.79;98.20
55755;BME280;41674;52.290;-1.474;2023-06-10T00:14:56;100971.07;;;13.63;93.34
55755;BME280;41674;52.290;-1.474;2023-06-10T00:17:25;100968.20;;;13.07;93.88
55755;BME280;41674;52.290;-1.474;2023-06-10T00:19:54;100966.96;;;13.19;94.38
55755;BME280;41674;52.290;-1.474;2023-06-10T00:22:24;100966.19;;;13.63;93.49
55755;BME280;41674;52.290;-1.474;2023-06-10T00:24:53;100968.98;;;12.51;97.34
55755;BME280;41674;52.290;-1.474;2023-06-10T00:27:24;100963.58;;;13.04;96.30
55755;BME280;41674;52.290;-1.474;2023-06-10T00:29:53;100956.12;;;13.41;94.43
55755;BME280;41674;52.290;-1.474;2023-06-10T00:32:22;100956.78;;;13.40;94.54
55755;BME280;41674;52.290;-1.474;2023-06-10T00:34:52;100955.70;;;13.51;93.72
55755;BME280;41674;52.290;-1.474;2023-06-10T00:37:21;100959.09;;;12.84;96.54
55755;BME280;41674;52.290;-1.474;2023-06-10T00:39:51;100954.21;;;12.66;97.27
55755;BME280;41674;52.290;-1.474;2023-06-10T00:42:19;100958.01;;;12.28;99.52
55755;BME280;41674;52.290;-1.474;2023-06-10T00:44:49;100945.92;;;12.79;98.26
55755;BME280;41674;52.290;-1.474;2023-06-10T00:47:18;100950.37;;;11.88;100.00
55755;BME280;41674;52.290;-1.474;2023-06-10T00:49:48;100946.22;;;12.78;100.00
55755;BME280;41674;52.290;-1.474;2023-06-10T00:52:18;100945.26;;;11.36;100.00
55755;BME280;41674;52.290;-1.474;2023-06-10T00:54:46;100943.93;;;11.92;100.00
55755;BME280;41674;52.290;-1.474;2023-06-10T00:57:15;100946.63;;;11.92;100.00
55755;BME280;41674;52.290;-1.474;2023-06-10T00:59:48;100941.88;;;11.86;100.00
55755;BME280;41674;52.290;-1.474;2023-06-10T01:02:14;100941.63;;;11.48;100.00
55755;BME280;41674;52.290;-1.474;2023-06-10T01:04:43;100940.85;;;11.57;100.00
55755;BME280;41674;52.290;-1.474;2023-06-10T01:07:20;100940.47;;;10.82;100.00
55755;BME280;41674;52.290;-1.474;2023-06-10T01:09:49;100944.46;;;11.70;100.00
55755;BME280;41674;52.290;-1.474;2023-06-10T01:12:18;100947.17;;;11.64;100.00
55755;BME280;41674;52.290;-1.474;2023-06-10T01:14:41;100941.98;;;12.73;100.00
55755;BME280;41674;52.290;-1.474;2023-06-10T01:17:10;100942.52;;;11.76;100.00
55755;BME280;41674;52.290;-1.474;2023-06-10T01:19:39;100939.01;;;12.26;100.00
55755;BME280;41674;52.290;-1.474;2023-06-10T01:22:09;100933.06;;;11.23;100.00
55755;BME280;41674;52.290;-1.474;2023-06-10T01:24:37;100929.06;;;10.44;100.00
55755;BME280;41674;52.290;-1.474;2023-06-10T01:27:12;100928.61;;;11.05;100.00
55755;BME280;41674;52.290;-1.474;2023-06-10T01:29:38;100928.31;;;11.55;100.00
55755;BME280;41674;52.290;-1.474;2023-06-10T01:32:10;100923.43;;;11.19;100.00
55755;BME280;41674;52.290;-1.474;2023-06-10T01:34:35;100924.71;;;11.56;100.00
55755;BME280;41674;52.290;-1.474;2023-06-10T01:37:04;100918.13;;;11.37;100.00
55755;BME280;41674;52.290;-1.474;2023-06-10T01:39:33;100919.46;;;12.22;100.00
55755;BME280;41674;52.290;-1.474;2023-06-10T01:42:03;100921.21;;;11.59;100.00
55755;BME280;41674;52.290;-1.474;2023-06-10T01:44:32;100913.09;;;12.14;98.30
55755;BME280;41674;52.290;-1.474;2023-06-10T01:47:00;100913.20;;;10.90;100.00
55755;BME280;41674;52.290;-1.474;2023-06-10T01:49:30;100914.43;;;11.52;100.00
55755;BME280;41674;52.290;-1.474;2023-06-10T01:51:59;100917.08;;;11.51;100.00
55755;BME280;41674;52.290;-1.474;2023-06-10T01:54:28;100908.41;;;11.37;100.00
55755;BME280;41674;52.290;-1.474;2023-06-10T01:56:58;100906.35;;;11.47;100.00
55755;BME280;41674;52.290;-1.474;2023-06-10T01:59:27;100907.90;;;11.21;100.00
55755;BME280;41674;52.290;-1.474;2023-06-10T02:01:56;100907.89;;;11.62;100.00
55755;BME280;41674;52.290;-1.474;2023-06-10T02:04:26;100905.44;;;10.57;100.00
55755;BME280;41674;52.290;-1.474;2023-06-10T02:06:55;100907.32;;;9.44;100.00
55755;BME280;41674;52.290;-1.474;2023-06-10T02:09:25;100903.05;;;10.40;100.00
55755;BME280;41674;52.290;-1.474;2023-06-10T02:14:24;100896.05;;;11.65;100.00
55755;BME280;41674;52.290;-1.474;2023-06-10T02:16:53;100902.27;;;11.78;100.00
55755;BME280;41674;52.290;-1.474;2023-06-10T02:19:21;100892.78;;;12.09;97.11
55755;BME280;41674;52.290;-1.474;2023-06-10T02:21:51;100894.14;;;12.48;96.93
55755;BME280;41674;52.290;-1.474;2023-06-10T02:24:20;100899.17;;;11.61;99.09
55755;BME280;41674;52.290;-1.474;2023-06-10T02:26:49;100899.11;;;11.89;99.89
55755;BME280;41674;52.290;-1.474;2023-06-10T02:29:19;100889.53;;;12.35;96.88
55755;BME280;41674;52.290;-1.474;2023-06-10T02:31:48;100898.54;;;11.25;100.00
55755;BME280;41674;52.290;-1.474;2023-06-10T02:34:17;100898.00;;;11.22;100.00
55755;BME280;41674;52.290;-1.474;2023-06-10T02:36:47;100893.50;;;11.93;99.18
55755;BME280;41674;52.290;-1.474;2023-06-10T02:39:16;100894.94;;;11.87;98.91
55755;BME280;41674;52.290;-1.474;2023-06-10T02:41:45;100894.66;;;11.41;100.00
55755;BME280;41674;52.290;-1.474;2023-06-10T02:44:15;100892.47;;;11.71;100.00
55755;BME280;41674;52.290;-1.474;2023-06-10T02:46:44;100891.33;;;12.02;98.74
55755;BME280;41674;52.290;-1.474;2023-06-10T02:49:14;100894.26;;;11.20;100.00
55755;BME280;41674;52.290;-1.474;2023-06-10T02:51:43;100892.59;;;11.83;98.40
55755;BME280;41674;52.290;-1.474;2023-06-10T02:54:13;100891.17;;;11.17;100.00
55755;BME280;41674;52.290;-1.474;2023-06-10T02:56:42;100896.72;;;11.22;100.00
55755;BME280;41674;52.290;-1.474;2023-06-10T02:59:11;100894.37;;;11.38;99.09
55755;BME280;41674;52.290;-1.474;2023-06-10T03:01:42;100887.83;;;10.59;100.00
55755;BME280;41674;52.290;-1.474;2023-06-10T03:04:10;100890.30;;;11.73;99.46
55755;BME280;41674;52.290;-1.474;2023-06-10T03:06:40;100884.27;;;11.56;98.68
55755;BME280;41674;52.290;-1.474;2023-06-10T03:09:10;100885.20;;;11.09;100.00
55755;BME280;41674;52.290;-1.474;2023-06-10T03:11:38;100873.94;;;12.50;94.32
55755;BME280;41674;52.290;-1.474;2023-06-10T03:14:07;100884.51;;;11.58;96.86
55755;BME280;41674;52.290;-1.474;2023-06-10T03:16:36;100874.23;;;12.63;92.81
55755;BME280;41674;52.290;-1.474;2023-06-10T03:19:06;100870.41;;;12.53;93.13
55755;BME280;41674;52.290;-1.474;2023-06-10T03:21:36;100883.82;;;11.12;98.13
55755;BME280;41674;52.290;-1.474;2023-06-10T03:24:06;100878.03;;;12.30;92.61
55755;BME280;41674;52.290;-1.474;2023-06-10T03:26:35;100882.55;;;11.17;98.42
55755;BME280;41674;52.290;-1.474;2023-06-10T03:29:05;100873.80;;;12.60;92.83
55755;BME280;41674;52.290;-1.474;2023-06-10T03:31:34;100875.49;;;12.98;88.74
55755;BME280;41674;52.290;-1.474;2023-06-10T03:34:04;100873.00;;;12.97;88.31
55755;BME280;41674;52.290;-1.474;2023-06-10T03:36:34;100873.93;;;12.70;89.62
55755;BME280;41674;52.290;-1.474;2023-06-10T03:39:03;100870.36;;;13.32;86.02
55755;BME280;41674;52.290;-1.474;2023-06-10T03:41:33;100874.84;;;11.80;93.32
55755;BME280;41674;52.290;-1.474;2023-06-10T03:44:03;100868.00;;;12.47;90.53
55755;BME280;41674;52.290;-1.474;2023-06-10T03:46:32;100876.59;;;12.18;93.22
55755;BME280;41674;52.290;-1.474;2023-06-10T03:49:02;100874.14;;;12.40;90.12
55755;BME280;41674;52.290;-1.474;2023-06-10T03:51:31;100879.34;;;11.55;93.95
55755;BME280;41674;52.290;-1.474;2023-06-10T03:54:01;100875.08;;;13.11;89.19
55755;BME280;41674;52.290;-1.474;2023-06-10T03:56:31;100874.92;;;12.84;87.95
55755;BME280;41674;52.290;-1.474;2023-06-10T04:01:29;100878.34;;;11.77;92.93
55755;BME280;41674;52.290;-1.474;2023-06-10T04:03:58;100876.99;;;10.69;96.27
55755;BME280;41674;52.290;-1.474;2023-06-10T04:06:28;100870.09;;;12.21;91.80
55755;BME280;41674;52.290;-1.474;2023-06-10T04:08:58;100868.08;;;12.39;90.21
55755;BME280;41674;52.290;-1.474;2023-06-10T04:11:27;100870.60;;;11.88;92.07
55755;BME280;41674;52.290;-1.474;2023-06-10T04:13:57;100879.92;;;11.23;95.91
55755;BME280;41674;52.290;-1.474;2023-06-10T04:16:26;100884.63;;;11.11;96.54
55755;BME280;41674;52.290;-1.474;2023-06-10T04:18:55;100881.20;;;12.40;91.23
55755;BME280;41674;52.290;-1.474;2023-06-10T04:21:24;100881.49;;;12.34;90.84
55755;BME280;41674;52.290;-1.474;2023-06-10T04:23:53;100880.08;;;11.59;92.54
55755;BME280;41674;52.290;-1.474;2023-06-10T04:26:23;100879.25;;;13.16;89.35
55755;BME280;41674;52.290;-1.474;2023-06-10T04:28:52;100878.23;;;12.39;92.21
55755;BME280;41674;52.290;-1.474;2023-06-10T04:31:22;100877.11;;;12.48;91.25
55755;BME280;41674;52.290;-1.474;2023-06-10T04:33:52;100875.70;;;12.47;92.15
55755;BME280;41674;52.290;-1.474;2023-06-10T04:36:21;100877.46;;;13.07;90.62
55755;BME280;41674;52.290;-1.474;2023-06-10T04:38:50;100870.44;;;13.17;90.62
55755;BME280;41674;52.290;-1.474;2023-06-10T04:41:19;100869.98;;;12.71;90.56
55755;BME280;41674;52.290;-1.474;2023-06-10T04:43:49;100866.52;;;13.39;89.13
55755;BME280;41674;52.290;-1.474;2023-06-10T04:46:18;100869.18;;;12.29;94.25
55755;BME280;41674;52.290;-1.474;2023-06-10T04:48:48;100874.92;;;11.86;97.06
55755;BME280;41674;52.290;-1.474;2023-06-10T04:51:18;100872.83;;;12.11;97.39
55755;BME280;41674;52.290;-1.474;2023-06-10T04:53:47;100879.43;;;11.23;98.89
55755;BME280;41674;52.290;-1.474;2023-06-10T04:56:17;100864.10;;;12.79;93.77
55755;BME280;41674;52.290;-1.474;2023-06-10T04:58:46;100860.35;;;12.35;96.16
55755;BME280;41674;52.290;-1.474;2023-06-10T05:01:16;100869.68;;;10.91;100.00
55755;BME280;41674;52.290;-1.474;2023-06-10T05:03:44;100865.87;;;11.36;100.00
55755;BME280;41674;52.290;-1.474;2023-06-10T05:06:14;100868.06;;;11.54;100.00
55755;BME280;41674;52.290;-1.474;2023-06-10T05:08:44;100868.89;;;10.35;100.00
55755;BME280;41674;52.290;-1.474;2023-06-10T05:11:13;100864.96;;;11.19;100.00
55755;BME280;41674;52.290;-1.474;2023-06-10T05:13:43;100857.25;;;11.79;100.00
55755;BME280;41674;52.290;-1.474;2023-06-10T05:16:12;100852.31;;;11.82;96.98
55755;BME280;41674;52.290;-1.474;2023-06-10T05:18:41;100861.32;;;11.11;100.00
55755;BME280;41674;52.290;-1.474;2023-06-10T05:21:11;100854.08;;;11.63;98.79
55755;BME280;41674;52.290;-1.474;2023-06-10T05:23:40;100851.98;;;12.39;96.69
55755;BME280;41674;52.290;-1.474;2023-06-10T05:26:10;100854.46;;;12.42;96.24
55755;BME280;41674;52.290;-1.474;2023-06-10T05:28:39;100853.70;;;12.58;96.36
55755;BME280;41674;52.290;-1.474;2023-06-10T05:31:08;100852.52;;;12.09;98.01
55755;BME280;41674;52.290;-1.474;2023-06-10T05:33:38;100850.77;;;13.25;94.31
55755;BME280;41674;52.290;-1.474;2023-06-10T05:36:07;100849.92;;;13.65;92.23
55755;BME280;41674;52.290;-1.474;2023-06-10T05:38:36;100858.99;;;11.69;100.00
55755;BME280;41674;52.290;-1.474;2023-06-10T05:41:06;100862.28;;;10.87;100.00
55755;BME280;41674;52.290;-1.474;2023-06-10T05:43:35;100859.55;;;12.18;100.00
55755;BME280;41674;52.290;-1.474;2023-06-10T05:46:04;100854.16;;;12.47;100.00
55755;BME280;41674;52.290;-1.474;2023-06-10T05:48:33;100855.82;;;12.53;100.00
55755;BME280;41674;52.290;-1.474;2023-06-10T05:51:03;100862.69;;;11.72;100.00
55755;BME280;41674;52.290;-1.474;2023-06-10T05:53:33;100861.27;;;11.55;100.00
55755;BME280;41674;52.290;-1.474;2023-06-10T05:56:02;100855.66;;;12.22;100.00
55755;BME280;41674;52.290;-1.474;2023-06-10T05:58:32;100864.38;;;11.28;100.00
55755;BME280;41674;52.290;-1.474;2023-06-10T06:01:01;100862.13;;;12.27;100.00
55755;BME280;41674;52.290;-1.474;2023-06-10T06:03:31;100869.72;;;11.03;100.00
55755;BME280;41674;52.290;-1.474;2023-06-10T06:06:00;100868.79;;;11.14;100.00
55755;BME280;41674;52.290;-1.474;2023-06-10T06:08:30;100866.20;;;11.98;100.00
55755;BME280;41674;52.290;-1.474;2023-06-10T06:11:00;100869.34;;;11.49;100.00
55755;BME280;41674;52.290;-1.474;2023-06-10T06:13:29;100869.95;;;11.66;100.00
55755;BME280;41674;52.290;-1.474;2023-06-10T06:15:58;100864.21;;;12.94;100.00
55755;BME280;41674;52.290;-1.474;2023-06-10T06:18:27;100865.44;;;11.62;100.00
55755;BME280;41674;52.290;-1.474;2023-06-10T06:20:57;100860.15;;;13.38;98.51
55755;BME280;41674;52.290;-1.474;2023-06-10T06:23:26;100858.56;;;13.29;97.81
55755;BME280;41674;52.290;-1.474;2023-06-10T06:25:56;100856.37;;;12.86;97.83
55755;BME280;41674;52.290;-1.474;2023-06-10T06:28:26;100853.09;;;13.41;97.85
55755;BME280;41674;52.290;-1.474;2023-06-10T06:30:56;100852.24;;;12.96;99.80
55755;BME280;41674;52.290;-1.474;2023-06-10T06:33:25;100852.83;;;12.62;100.00
55755;BME280;41674;52.290;-1.474;2023-06-10T06:35:55;100852.93;;;13.14;99.90
55755;BME280;41674;52.290;-1.474;2023-06-10T06:38:24;100855.72;;;12.87;100.00
55755;BME280;41674;52.290;-1.474;2023-06-10T06:40:53;100856.56;;;13.66;98.08
55755;BME280;41674;52.290;-1.474;2023-06-10T06:43:22;100853.49;;;13.85;96.51
55755;BME280;41674;52.290;-1.474;2023-06-10T06:45:52;100850.13;;;13.79;97.02
55755;BME280;41674;52.290;-1.474;2023-06-10T06:48:22;100849.13;;;13.70;97.33
55755;BME280;41674;52.290;-1.474;2023-06-10T06:50:51;100852.37;;;12.56;100.00
55755;BME280;41674;52.290;-1.474;2023-06-10T06:53:21;100850.63;;;13.06;100.00
55755;BME280;41674;52.290;-1.474;2023-06-10T06:55:50;100849.78;;;13.47;100.00
55755;BME280;41674;52.290;-1.474;2023-06-10T06:58:19;100845.96;;;14.17;96.80
55755;BME280;41674;52.290;-1.474;2023-06-10T07:00:49;100847.09;;;14.66;95.45
55755;BME280;41674;52.290;-1.474;2023-06-10T07:03:18;100847.24;;;14.96;92.69
55755;BME280;41674;52.290;-1.474;2023-06-10T07:05:48;100847.48;;;15.17;92.22
55755;BME280;41674;52.290;-1.474;2023-06-10T07:08:18;100845.43;;;14.53;95.42
55755;BME280;41674;52.290;-1.474;2023-06-10T07:10:47;100848.70;;;14.72;92.85
55755;BME280;41674;52.290;-1.474;2023-06-10T07:13:16;100850.15;;;14.81;93.40
55755;BME280;41674;52.290;-1.474;2023-06-10T07:15:46;100849.80;;;14.46;94.54
55755;BME280;41674;52.290;-1.474;2023-06-10T07:18:16;100850.45;;;14.35;95.51
55755;BME280;41674;52.290;-1.474;2023-06-10T07:20:46;100850.95;;;15.44;89.96
55755;BME280;41674;52.290;-1.474;2023-06-10T07:23:15;100848.08;;;15.13;90.94
55755;BME280;41674;52.290;-1.474;2023-06-10T07:25:44;100847.12;;;14.46;93.65
55755;BME280;41674;52.290;-1.474;2023-06-10T07:28:14;100848.15;;;15.24;90.80
55755;BME280;41674;52.290;-1.474;2023-06-10T07:30:43;100842.17;;;14.82;93.96
55755;BME280;41674;52.290;-1.474;2023-06-10T07:33:19;100847.32;;;15.24;92.50
55755;BME280;41674;52.290;-1.474;2023-06-10T07:35:43;100844.56;;;15.39;90.67
55755;BME280;41674;52.290;-1.474;2023-06-10T07:38:12;100842.50;;;14.36;97.71
55755;BME280;41674;52.290;-1.474;2023-06-10T07:40:41;100850.59;;;15.03;94.08
55755;BME280;41674;52.290;-1.474;2023-06-10T07:43:10;100862.56;;;13.19;100.00
55755;BME280;41674;52.290;-1.474;2023-06-10T07:45:40;100862.37;;;14.46;99.08
55755;BME280;41674;52.290;-1.474;2023-06-10T07:48:09;100864.46;;;15.15;96.36
55755;BME280;41674;52.290;-1.474;2023-06-10T07:50:38;100871.31;;;13.97;100.00
55755;BME280;41674;52.290;-1.474;2023-06-10T07:53:08;100866.70;;;14.27;100.00
55755;BME280;41674;52.290;-1.474;2023-06-10T07:55:37;100867.89;;;15.68;93.56
55755;BME280;41674;52.290;-1.474;2023-06-10T07:58:07;100865.56;;;15.91;91.72
55755;BME280;41674;52.290;-1.474;2023-06-10T08:00:36;100860.58;;;16.64;89.04
55755;BME280;41674;52.290;-1.474;2023-06-10T08:03:07;100852.00;;;16.96;86.87
55755;BME280;41674;52.290;-1.474;2023-06-10T08:05:36;100848.16;;;16.78;89.23
55755;BME280;41674;52.290;-1.474;2023-06-10T08:08:05;100847.45;;;16.36;90.14
55755;BME280;41674;52.290;-1.474;2023-06-10T08:10:35;100844.31;;;16.66;88.84
55755;BME280;41674;52.290;-1.474;2023-06-10T08:13:04;100845.59;;;16.78;89.87
55755;BME280;41674;52.290;-1.474;2023-06-10T08:15:33;100846.83;;;16.89;87.81
55755;BME280;41674;52.290;-1.474;2023-06-10T08:18:03;100847.60;;;17.41;85.19
55755;BME280;41674;52.290;-1.474;2023-06-10T08:20:33;100846.86;;;18.27;85.63
55755;BME280;41674;52.290;-1.474;2023-06-10T08:23:02;100849.80;;;17.86;84.52
55755;BME280;41674;52.290;-1.474;2023-06-10T08:25:31;100852.23;;;17.13;86.03
55755;BME280;41674;52.290;-1.474;2023-06-10T08:28:01;100849.86;;;16.94;88.31
55755;BME280;41674;52.290;-1.474;2023-06-10T08:30:30;100845.61;;;18.17;84.47
55755;BME280;41674;52.290;-1.474;2023-06-10T08:33:00;100848.90;;;17.97;83.65
55755;BME280;41674;52.290;-1.474;2023-06-10T08:35:34;100849.65;;;18.39;80.38
55755;BME280;41674;52.290;-1.474;2023-06-10T08:37:59;100851.70;;;18.90;82.49
55755;BME280;41674;52.290;-1.474;2023-06-10T08:40:28;100855.28;;;18.46;84.00
55755;BME280;41674;52.290;-1.474;2023-06-10T08:43:04;100850.24;;;18.36;82.12
55755;BME280;41674;52.290;-1.474;2023-06-10T08:45:30;100850.88;;;17.48;84.01
55755;BME280;41674;52.290;-1.474;2023-06-10T08:47:57;100846.69;;;19.11;82.66
55755;BME280;41674;52.290;-1.474;2023-06-10T08:50:26;100848.36;;;19.32;81.34
55755;BME280;41674;52.290;-1.474;2023-06-10T08:52:57;100847.68;;;18.40;82.82
55755;BME280;41674;52.290;-1.474;2023-06-10T08:55:29;100850.25;;;18.68;82.17
55755;BME280;41674;52.290;-1.474;2023-06-10T08:57:54;100854.89;;;19.73;80.11
55755;BME280;41674;52.290;-1.474;2023-06-10T09:00:25;100848.72;;;21.01;74.46
55755;BME280;41674;52.290;-1.474;2023-06-10T09:02:53;100842.12;;;20.15;76.45
55755;BME280;41674;52.290;-1.474;2023-06-10T09:05:22;100835.52;;;20.66;73.53
55755;BME280;41674;52.290;-1.474;2023-06-10T09:07:53;100826.36;;;20.43;72.89
55755;BME280;41674;52.290;-1.474;2023-06-10T09:10:22;100825.97;;;20.55;73.03
55755;BME280;41674;52.290;-1.474;2023-06-10T09:12:52;100824.28;;;21.08;70.59
55755;BME280;41674;52.290;-1.474;2023-06-10T09:15:21;100832.26;;;19.91;75.95
55755;BME280;41674;52.290;-1.474;2023-06-10T09:17:51;100831.99;;;21.01;70.16
55755;BME280;41674;52.290;-1.474;2023-06-10T09:20:20;100829.52;;;21.58;70.27
55755;BME280;41674;52.290;-1.474;2023-06-10T09:22:50;100827.55;;;20.82;73.33
55755;BME280;41674;52.290;-1.474;2023-06-10T09:27:51;100831.07;;;21.26;72.69
55755;BME280;41674;52.290;-1.474;2023-06-10T09:30:25;100831.31;;;20.79;70.98
55755;BME280;41674;52.290;-1.474;2023-06-10T09:32:48;100832.04;;;20.74;71.05
55755;BME280;41674;52.290;-1.474;2023-06-10T09:35:18;100839.60;;;19.64;78.77
55755;BME280;41674;52.290;-1.474;2023-06-10T09:37:51;100832.34;;;20.79;75.31
55755;BME280;41674;52.290;-1.474;2023-06-10T09:40:16;100837.15;;;19.90;78.87
55755;BME280;41674;52.290;-1.474;2023-06-10T09:42:47;100838.25;;;19.52;78.14
55755;BME280;41674;52.290;-1.474;2023-06-10T09:45:16;100838.43;;;19.91;78.79
55755;BME280;41674;52.290;-1.474;2023-06-10T09:47:46;100826.60;;;20.95;74.41
55755;BME280;41674;52.290;-1.474;2023-06-10T09:50:15;100829.03;;;21.23;71.32
55755;BME280;41674;52.290;-1.474;2023-06-10T09:52:46;100836.21;;;20.67;74.39
55755;BME280;41674;52.290;-1.474;2023-06-10T09:55:14;100830.53;;;21.62;70.54
55755;BME280;41674;52.290;-1.474;2023-06-10T09:57:44;100835.68;;;21.22;72.20
55755;BME280;41674;52.290;-1.474;2023-06-10T10:00:13;100834.25;;;22.46;68.37
55755;BME280;41674;52.290;-1.474;2023-06-10T10:02:48;100833.27;;;21.95;71.47
55755;BME280;41674;52.290;-1.474;2023-06-10T10:05:12;100829.94;;;21.29;70.09
55755;BME280;41674;52.290;-1.474;2023-06-10T10:07:40;100834.44;;;19.72;75.80
55755;BME280;41674;52.290;-1.474;2023-06-10T10:10:11;100829.72;;;20.45;76.06
55755;BME280;41674;52.290;-1.474;2023-06-10T10:12:39;100821.17;;;22.15;69.99
55755;BME280;41674;52.290;-1.474;2023-06-10T10:17:43;100823.66;;;21.41;69.34
55755;BME280;41674;52.290;-1.474;2023-06-10T10:20:09;100822.42;;;20.81;70.14
55755;BME280;41674;52.290;-1.474;2023-06-10T10:22:39;100817.77;;;22.28;67.18
55755;BME280;41674;52.290;-1.474;2023-06-10T10:25:11;100819.76;;;22.07;71.37
55755;BME280;41674;52.290;-1.474;2023-06-10T10:27:42;100822.44;;;21.10;74.62
55755;BME280;41674;52.290;-1.474;2023-06-10T10:30:07;100823.26;;;22.05;69.82
55755;BME280;41674;52.290;-1.474;2023-06-10T10:32:40;100823.46;;;22.39;69.11
55755;BME280;41674;52.290;-1.474;2023-06-10T10:35:08;100819.46;;;22.10;69.28
55755;BME280;41674;52.290;-1.474;2023-06-10T10:37:35;100812.22;;;22.98;67.26
55755;BME280;41674;52.290;-1.474;2023-06-10T10:40:04;100808.33;;;23.46;64.79
55755;BME280;41674;52.290;-1.474;2023-06-10T10:42:33;100807.53;;;23.20;65.85
55755;BME280;41674;52.290;-1.474;2023-06-10T10:45:02;100808.29;;;23.40;64.73
55755;BME280;41674;52.290;-1.474;2023-06-10T10:47:31;100804.88;;;22.53;68.81
55755;BME280;41674;52.290;-1.474;2023-06-10T10:50:00;100798.12;;;22.96;69.69
55755;BME280;41674;52.290;-1.474;2023-06-10T10:54:59;100803.74;;;23.80;63.43
55755;BME280;41674;52.290;-1.474;2023-06-10T10:57:31;100802.80;;;22.13;68.04
55755;BME280;41674;52.290;-1.474;2023-06-10T10:59:58;100806.05;;;22.08;72.66
55755;BME280;41674;52.290;-1.474;2023-06-10T11:02:35;100802.46;;;21.77;72.61
55755;BME280;41674;52.290;-1.474;2023-06-10T11:04:56;100796.72;;;22.50;72.27
55755;BME280;41674;52.290;-1.474;2023-06-10T11:07:26;100795.48;;;22.30;71.90
55755;BME280;41674;52.290;-1.474;2023-06-10T11:10:00;100788.80;;;22.96;69.25
55755;BME280;41674;52.290;-1.474;2023-06-10T11:12:25;100785.09;;;22.44;70.17
55755;BME280;41674;52.290;-1.474;2023-06-10T11:14:55;100782.96;;;22.67;73.56
55755;BME280;41674;52.290;-1.474;2023-06-10T11:17:23;100781.22;;;23.18;70.56
55755;BME280;41674;52.290;-1.474;2023-06-10T11:19:53;100781.86;;;24.28;67.94
55755;BME280;41674;52.290;-1.474;2023-06-10T11:22:22;100777.39;;;24.19;65.67
55755;BME280;41674;52.290;-1.474;2023-06-10T11:24:52;100778.75;;;23.70;67.79
55755;BME280;41674;52.290;-1.474;2023-06-10T11:27:22;100774.28;;;24.19;66.84
55755;BME280;41674;52.290;-1.474;2023-06-10T11:29:58;100759.69;;;25.06;62.21
55755;BME280;41674;52.290;-1.474;2023-06-10T11:32:19;100766.97;;;24.51;66.09
55755;BME280;41674;52.290;-1.474;2023-06-10T11:34:52;100766.36;;;24.70;65.18
55755;BME280;41674;52.290;-1.474;2023-06-10T11:37:17;100763.54;;;24.80;64.08
55755;BME280;41674;52.290;-1.474;2023-06-10T11:39:47;100761.23;;;25.06;61.69
55755;BME280;41674;52.290;-1.474;2023-06-10T11:42:16;100758.68;;;25.80;61.21
55755;BME280;41674;52.290;-1.474;2023-06-10T11:44:48;100755.52;;;26.79;56.07
55755;BME280;41674;52.290;-1.474;2023-06-10T11:47:15;100757.74;;;26.19;57.41
55755;BME280;41674;52.290;-1.474;2023-06-10T11:49:44;100753.61;;;26.15;58.38
55755;BME280;41674;52.290;-1.474;2023-06-10T11:52:14;100750.20;;;27.04;54.75
55755;BME280;41674;52.290;-1.474;2023-06-10T11:54:53;100752.81;;;26.73;53.95
55755;BME280;41674;52.290;-1.474;2023-06-10T11:57:12;100752.67;;;26.50;54.93
55755;BME280;41674;52.290;-1.474;2023-06-10T11:59:42;100759.23;;;26.02;55.83
55755;BME280;41674;52.290;-1.474;2023-06-10T12:02:15;100752.77;;;26.41;53.83
55755;BME280;41674;52.290;-1.474;2023-06-10T12:04:41;100744.99;;;26.94;54.53
55755;BME280;41674;52.290;-1.474;2023-06-10T12:07:17;100745.12;;;27.67;52.51
55755;BME280;41674;52.290;-1.474;2023-06-10T12:09:40;100746.59;;;25.93;54.83
55755;BME280;41674;52.290;-1.474;2023-06-10T12:12:10;100748.01;;;26.08;54.73
55755;BME280;41674;52.290;-1.474;2023-06-10T12:14:52;100750.12;;;26.40;53.78
55755;BME280;41674;52.290;-1.474;2023-06-10T12:17:08;100744.12;;;26.79;53.44
55755;BME280;41674;52.290;-1.474;2023-06-10T12:19:38;100744.42;;;27.73;52.69
55755;BME280;41674;52.290;-1.474;2023-06-10T12:24:44;100741.63;;;28.58;47.91
55755;BME280;41674;52.290;-1.474;2023-06-10T12:27:11;100739.68;;;28.60;50.54
55755;BME280;41674;52.290;-1.474;2023-06-10T12:29:36;100737.34;;;29.10;49.46
55755;BME280;41674;52.290;-1.474;2023-06-10T12:32:07;100733.00;;;28.46;51.32
55755;BME280;41674;52.290;-1.474;2023-06-10T12:34:37;100734.77;;;27.39;53.63
55755;BME280;41674;52.290;-1.474;2023-06-10T12:37:07;100731.54;;;27.63;51.97
55755;BME280;41674;52.290;-1.474;2023-06-10T12:39:34;100725.69;;;29.22;50.81
55755;BME280;41674;52.290;-1.474;2023-06-10T12:42:03;100727.90;;;29.05;49.94
55755;BME280;41674;52.290;-1.474;2023-06-10T12:44:34;100730.18;;;29.41;48.23
55755;BME280;41674;52.290;-1.474;2023-06-10T12:47:08;100724.08;;;29.51;45.79
55755;BME280;41674;52.290;-1.474;2023-06-10T12:49:32;100723.97;;;30.09;46.65
55755;BME280;41674;52.290;-1.474;2023-06-10T12:52:01;100720.50;;;27.69;50.46
55755;BME280;41674;52.290;-1.474;2023-06-10T12:54:31;100716.27;;;29.49;49.61
55755;BME280;41674;52.290;-1.474;2023-06-10T12:57:00;100713.41;;;29.79;46.45
55755;BME280;41674;52.290;-1.474;2023-06-10T12:59:30;100708.40;;;29.86;43.89
55755;BME280;41674;52.290;-1.474;2023-06-10T13:01:59;100704.88;;;30.25;44.79
55755;BME280;41674;52.290;-1.474;2023-06-10T13:04:29;100701.63;;;30.96;45.66